Terminal Aerodrome Forecast
Issued by NWS Charleston, WV

Current Version | Previous Version | Text Only | Print | Product List | Glossary Off
Versions: 1 2 3 4 5 6 7 8 9 10 11 12 13 14 15 16 17 18 19 20 21 22 23 24 25 26 27 28 29 30

000
FTUS41 KRLX 261739
TAFHTS
TAF
KHTS 261739Z 2618/2718 19005KT P6SM SCT040
     FM262300 VRB03KT 6SM HZ VCTS SCT040CB BKN050
     FM270500 00000KT 6SM BR BKN040
     FM271100 00000KT 4SM BR BKN030
     FM271500 VRB03KT 6SM HZ BKN035=

USA.gov is the U.S. government's official web portal to all federal, state and local government web resources and services.